Denver, Colorado
Current Conditions -  °F | °C
As of 12:58 AM on Friday 28 Nov 2014 (Local Time) from KBKF Reporting Station
Few Clouds Few Clouds  
Wind Chill: 45°   Ceiling: Unl
Heat Index: 48°   Visibility: 10mi
Dew Point: 16°   Wind: 7mph
Humidity: 28%   Direction: 180°S
Pressure: 30.06"   Gusts: NA
Location:  39.74°N, 104.99°W
Report Text: KBKF 280758Z 18006KT 10SM FEW220 09/M09 A3006 RMK AO2A SLP133 T00881087
Loading
Personal Weather Stations






























Interactive Weather Map New forecast layout! Learn more

10-Day Weather Forecast

Advertisements
Track Severe Weather on mobile